sensor_id;sensor_type;location;lat;lon;timestamp;temperature;humidity
17174;DHT22;8702;48.130;-1.696;2022-07-06T00:00:10;17.70;99.90
17174;DHT22;8702;48.130;-1.696;2022-07-06T00:02:37;17.70;99.90
17174;DHT22;8702;48.130;-1.696;2022-07-06T00:05:05;17.60;99.90
17174;DHT22;8702;48.130;-1.696;2022-07-06T00:07:32;17.70;99.90
17174;DHT22;8702;48.130;-1.696;2022-07-06T00:09:59;17.70;99.90
17174;DHT22;8702;48.130;-1.696;2022-07-06T00:12:26;17.70;99.90
17174;DHT22;8702;48.130;-1.696;2022-07-06T00:14:54;17.70;99.90
17174;DHT22;8702;48.130;-1.696;2022-07-06T00:17:21;17.60;99.90
17174;DHT22;8702;48.130;-1.696;2022-07-06T00:19:48;17.60;99.90
17174;DHT22;8702;48.130;-1.696;2022-07-06T00:22:15;17.50;99.90
17174;DHT22;8702;48.130;-1.696;2022-07-06T00:24:42;17.50;99.90
17174;DHT22;8702;48.130;-1.696;2022-07-06T00:27:09;17.50;99.90
17174;DHT22;8702;48.130;-1.696;2022-07-06T00:29:36;17.50;99.90
17174;DHT22;8702;48.130;-1.696;2022-07-06T00:32:05;17.50;99.90
17174;DHT22;8702;48.130;-1.696;2022-07-06T00:34:32;17.60;99.90
17174;DHT22;8702;48.130;-1.696;2022-07-06T00:37:00;17.60;99.90
17174;DHT22;8702;48.130;-1.696;2022-07-06T00:39:27;17.50;99.90
17174;DHT22;8702;48.130;-1.696;2022-07-06T00:41:55;17.40;99.90
17174;DHT22;8702;48.130;-1.696;2022-07-06T00:44:22;17.40;99.90
17174;DHT22;8702;48.130;-1.696;2022-07-06T00:46:49;17.40;99.90
17174;DHT22;8702;48.130;-1.696;2022-07-06T00:49:17;17.40;99.90
17174;DHT22;8702;48.130;-1.696;2022-07-06T00:52:03;17.30;99.90
17174;DHT22;8702;48.130;-1.696;2022-07-06T00:54:31;17.30;99.90
17174;DHT22;8702;48.130;-1.696;2022-07-06T00:56:59;17.30;99.90
17174;DHT22;8702;48.130;-1.696;2022-07-06T00:59:27;17.30;99.90
17174;DHT22;8702;48.130;-1.696;2022-07-06T01:01:55;17.40;99.90
17174;DHT22;8702;48.130;-1.696;2022-07-06T01:04:23;17.40;99.90
17174;DHT22;8702;48.130;-1.696;2022-07-06T01:06:50;17.40;99.90
17174;DHT22;8702;48.130;-1.696;2022-07-06T01:09:17;17.30;99.90
17174;DHT22;8702;48.130;-1.696;2022-07-06T01:11:47;17.30;99.90
17174;DHT22;8702;48.130;-1.696;2022-07-06T01:14:15;17.40;99.90
17174;DHT22;8702;48.130;-1.696;2022-07-06T01:16:43;17.20;99.90
17174;DHT22;8702;48.130;-1.696;2022-07-06T01:19:10;17.10;99.90
17174;DHT22;8702;48.130;-1.696;2022-07-06T01:21:39;17.10;99.90
17174;DHT22;8702;48.130;-1.696;2022-07-06T01:24:06;17.10;99.90
17174;DHT22;8702;48.130;-1.696;2022-07-06T01:26:34;17.10;99.90
17174;DHT22;8702;48.130;-1.696;2022-07-06T01:29:01;17.20;99.90
17174;DHT22;8702;48.130;-1.696;2022-07-06T01:31:27;17.10;99.90
17174;DHT22;8702;48.130;-1.696;2022-07-06T01:33:55;17.10;99.90
17174;DHT22;8702;48.130;-1.696;2022-07-06T01:36:23;17.10;99.90
17174;DHT22;8702;48.130;-1.696;2022-07-06T01:38:53;17.00;99.90
17174;DHT22;8702;48.130;-1.696;2022-07-06T01:41:21;17.00;99.90
17174;DHT22;8702;48.130;-1.696;2022-07-06T01:43:48;17.00;99.90
17174;DHT22;8702;48.130;-1.696;2022-07-06T01:46:15;16.90;99.90
17174;DHT22;8702;48.130;-1.696;2022-07-06T01:48:42;16.90;99.90
17174;DHT22;8702;48.130;-1.696;2022-07-06T01:51:09;16.90;99.90
17174;DHT22;8702;48.130;-1.696;2022-07-06T01:53:37;17.00;99.90
17174;DHT22;8702;48.130;-1.696;2022-07-06T01:56:07;17.00;99.90
17174;DHT22;8702;48.130;-1.696;2022-07-06T01:58:34;17.10;99.90
17174;DHT22;8702;48.130;-1.696;2022-07-06T02:01:06;17.10;99.90
17174;DHT22;8702;48.130;-1.696;2022-07-06T02:03:33;17.10;99.90
17174;DHT22;8702;48.130;-1.696;2022-07-06T02:06:00;17.10;99.90
17174;DHT22;8702;48.130;-1.696;2022-07-06T02:08:27;17.10;99.90
17174;DHT22;8702;48.130;-1.696;2022-07-06T02:10:54;17.10;99.90
17174;DHT22;8702;48.130;-1.696;2022-07-06T02:13:23;17.10;99.90
17174;DHT22;8702;48.130;-1.696;2022-07-06T02:15:50;17.10;99.90
17174;DHT22;8702;48.130;-1.696;2022-07-06T02:18:17;17.10;99.90
17174;DHT22;8702;48.130;-1.696;2022-07-06T02:20:44;17.10;99.90
17174;DHT22;8702;48.130;-1.696;2022-07-06T02:23:11;17.10;99.90
17174;DHT22;8702;48.130;-1.696;2022-07-06T02:25:38;17.10;99.90
17174;DHT22;8702;48.130;-1.696;2022-07-06T02:28:05;17.10;99.90
17174;DHT22;8702;48.130;-1.696;2022-07-06T02:30:33;17.10;99.90
17174;DHT22;8702;48.130;-1.696;2022-07-06T02:33:00;17.10;99.90
17174;DHT22;8702;48.130;-1.696;2022-07-06T02:35:27;17.10;99.90
17174;DHT22;8702;48.130;-1.696;2022-07-06T02:37:54;17.10;99.90
17174;DHT22;8702;48.130;-1.696;2022-07-06T02:40:22;17.10;99.90
17174;DHT22;8702;48.130;-1.696;2022-07-06T02:42:49;17.10;99.90
17174;DHT22;8702;48.130;-1.696;2022-07-06T02:45:15;17.10;99.90
17174;DHT22;8702;48.130;-1.696;2022-07-06T02:47:44;17.00;99.90
17174;DHT22;8702;48.130;-1.696;2022-07-06T02:50:11;17.10;99.90
17174;DHT22;8702;48.130;-1.696;2022-07-06T02:52:38;17.00;99.90
17174;DHT22;8702;48.130;-1.696;2022-07-06T02:55:06;17.00;99.90
17174;DHT22;8702;48.130;-1.696;2022-07-06T02:57:33;17.10;99.90
17174;DHT22;8702;48.130;-1.696;2022-07-06T03:00:00;17.10;99.90
17174;DHT22;8702;48.130;-1.696;2022-07-06T03:02:27;17.10;99.90
17174;DHT22;8702;48.130;-1.696;2022-07-06T03:04:55;17.10;99.90
17174;DHT22;8702;48.130;-1.696;2022-07-06T03:07:23;17.00;99.90
17174;DHT22;8702;48.130;-1.696;2022-07-06T03:09:50;17.10;99.90
17174;DHT22;8702;48.130;-1.696;2022-07-06T03:12:17;17.10;99.90
17174;DHT22;8702;48.130;-1.696;2022-07-06T03:14:44;17.00;99.90
17174;DHT22;8702;48.130;-1.696;2022-07-06T03:17:11;17.10;99.90
17174;DHT22;8702;48.130;-1.696;2022-07-06T03:19:38;17.10;99.90
17174;DHT22;8702;48.130;-1.696;2022-07-06T03:22:06;17.00;99.90
17174;DHT22;8702;48.130;-1.696;2022-07-06T03:24:33;17.10;99.90
17174;DHT22;8702;48.130;-1.696;2022-07-06T03:27:00;17.00;99.90
17174;DHT22;8702;48.130;-1.696;2022-07-06T03:29:27;17.00;99.90
17174;DHT22;8702;48.130;-1.696;2022-07-06T03:31:54;17.00;99.90
17174;DHT22;8702;48.130;-1.696;2022-07-06T03:34:21;17.00;99.90
17174;DHT22;8702;48.130;-1.696;2022-07-06T03:36:48;16.90;99.90
17174;DHT22;8702;48.130;-1.696;2022-07-06T03:39:16;16.90;99.90
17174;DHT22;8702;48.130;-1.696;2022-07-06T03:41:43;16.90;99.90
17174;DHT22;8702;48.130;-1.696;2022-07-06T03:44:10;16.90;99.90
17174;DHT22;8702;48.130;-1.696;2022-07-06T03:46:37;16.90;99.90
17174;DHT22;8702;48.130;-1.696;2022-07-06T03:49:04;16.90;99.90
17174;DHT22;8702;48.130;-1.696;2022-07-06T03:51:31;16.90;99.90
17174;DHT22;8702;48.130;-1.696;2022-07-06T03:53:58;16.80;99.90
17174;DHT22;8702;48.130;-1.696;2022-07-06T03:56:26;16.70;99.90
17174;DHT22;8702;48.130;-1.696;2022-07-06T03:58:59;16.70;99.90
17174;DHT22;8702;48.130;-1.696;2022-07-06T04:01:27;16.70;99.90
17174;DHT22;8702;48.130;-1.696;2022-07-06T04:03:54;16.70;99.90
17174;DHT22;8702;48.130;-1.696;2022-07-06T04:06:21;16.70;99.90
17174;DHT22;8702;48.130;-1.696;2022-07-06T04:08:48;16.70;99.90
17174;DHT22;8702;48.130;-1.696;2022-07-06T04:11:15;16.60;99.90
17174;DHT22;8702;48.130;-1.696;2022-07-06T04:13:43;16.50;99.90
17174;DHT22;8702;48.130;-1.696;2022-07-06T04:16:10;16.40;99.90
17174;DHT22;8702;48.130;-1.696;2022-07-06T04:18:37;16.20;99.90
17174;DHT22;8702;48.130;-1.696;2022-07-06T04:21:04;16.20;99.90
17174;DHT22;8702;48.130;-1.696;2022-07-06T04:23:31;16.20;99.90
17174;DHT22;8702;48.130;-1.696;2022-07-06T04:25:58;16.10;99.90
17174;DHT22;8702;48.130;-1.696;2022-07-06T04:28:25;16.10;99.90
17174;DHT22;8702;48.130;-1.696;2022-07-06T04:30:54;16.00;99.90
17174;DHT22;8702;48.130;-1.696;2022-07-06T04:33:21;15.90;99.90
17174;DHT22;8702;48.130;-1.696;2022-07-06T04:35:48;15.90;99.90
17174;DHT22;8702;48.130;-1.696;2022-07-06T04:38:15;15.90;99.90
17174;DHT22;8702;48.130;-1.696;2022-07-06T04:40:42;15.90;99.90
17174;DHT22;8702;48.130;-1.696;2022-07-06T04:43:11;16.00;99.90
17174;DHT22;8702;48.130;-1.696;2022-07-06T04:45:38;16.00;99.90
17174;DHT22;8702;48.130;-1.696;2022-07-06T04:48:07;15.90;99.90
17174;DHT22;8702;48.130;-1.696;2022-07-06T04:50:34;15.90;99.90
17174;DHT22;8702;48.130;-1.696;2022-07-06T04:53:02;15.90;99.90
17174;DHT22;8702;48.130;-1.696;2022-07-06T04:55:29;15.90;99.90
17174;DHT22;8702;48.130;-1.696;2022-07-06T04:57:56;15.80;99.90
17174;DHT22;8702;48.130;-1.696;2022-07-06T05:00:23;15.80;99.90
17174;DHT22;8702;48.130;-1.696;2022-07-06T05:02:50;15.80;99.90
17174;DHT22;8702;48.130;-1.696;2022-07-06T05:05:19;15.80;99.90
17174;DHT22;8702;48.130;-1.696;2022-07-06T05:07:46;15.80;99.90
17174;DHT22;8702;48.130;-1.696;2022-07-06T05:10:13;15.80;99.90
17174;DHT22;8702;48.130;-1.696;2022-07-06T05:12:40;15.80;99.90
17174;DHT22;8702;48.130;-1.696;2022-07-06T05:15:08;15.80;99.90
17174;DHT22;8702;48.130;-1.696;2022-07-06T05:17:35;15.70;99.90
17174;DHT22;8702;48.130;-1.696;2022-07-06T05:20:03;15.80;99.90
17174;DHT22;8702;48.130;-1.696;2022-07-06T05:22:32;15.80;99.90
17174;DHT22;8702;48.130;-1.696;2022-07-06T05:24:59;15.80;99.90
17174;DHT22;8702;48.130;-1.696;2022-07-06T05:27:26;15.80;99.90
17174;DHT22;8702;48.130;-1.696;2022-07-06T05:29:53;15.80;99.90
17174;DHT22;8702;48.130;-1.696;2022-07-06T05:32:20;15.90;99.90
17174;DHT22;8702;48.130;-1.696;2022-07-06T05:34:47;16.00;99.90
17174;DHT22;8702;48.130;-1.696;2022-07-06T05:37:16;16.00;99.90
17174;DHT22;8702;48.130;-1.696;2022-07-06T05:39:44;16.00;99.90
17174;DHT22;8702;48.130;-1.696;2022-07-06T05:42:12;16.10;99.90
17174;DHT22;8702;48.130;-1.696;2022-07-06T05:44:39;16.20;99.90
17174;DHT22;8702;48.130;-1.696;2022-07-06T05:47:07;16.30;99.90
17174;DHT22;8702;48.130;-1.696;2022-07-06T05:49:51;16.40;99.90
17174;DHT22;8702;48.130;-1.696;2022-07-06T05:52:35;16.50;99.90
17174;DHT22;8702;48.130;-1.696;2022-07-06T05:55:05;16.60;99.90
17174;DHT22;8702;48.130;-1.696;2022-07-06T05:57:32;16.60;99.90
17174;DHT22;8702;48.130;-1.696;2022-07-06T05:59:59;16.70;99.90
17174;DHT22;8702;48.130;-1.696;2022-07-06T06:02:26;16.70;99.90
17174;DHT22;8702;48.130;-1.696;2022-07-06T06:04:53;16.80;99.90
17174;DHT22;8702;48.130;-1.696;2022-07-06T06:07:20;16.90;99.90
17174;DHT22;8702;48.130;-1.696;2022-07-06T06:09:47;17.00;99.90
17174;DHT22;8702;48.130;-1.696;2022-07-06T06:12:15;17.00;99.90
17174;DHT22;8702;48.130;-1.696;2022-07-06T06:14:42;17.00;99.90
17174;DHT22;8702;48.130;-1.696;2022-07-06T06:17:09;17.10;99.90
17174;DHT22;8702;48.130;-1.696;2022-07-06T06:19:36;17.10;99.90
17174;DHT22;8702;48.130;-1.696;2022-07-06T06:22:03;17.30;99.90
17174;DHT22;8702;48.130;-1.696;2022-07-06T06:24:31;17.30;99.90
17174;DHT22;8702;48.130;-1.696;2022-07-06T06:26:58;17.40;99.90
17174;DHT22;8702;48.130;-1.696;2022-07-06T06:29:27;17.40;99.90
17174;DHT22;8702;48.130;-1.696;2022-07-06T06:31:54;17.50;99.90
17174;DHT22;8702;48.130;-1.696;2022-07-06T06:34:21;17.50;99.90
17174;DHT22;8702;48.130;-1.696;2022-07-06T06:36:48;17.60;99.90
17174;DHT22;8702;48.130;-1.696;2022-07-06T06:39:15;17.70;99.90
17174;DHT22;8702;48.130;-1.696;2022-07-06T06:41:42;17.70;99.90
17174;DHT22;8702;48.130;-1.696;2022-07-06T06:44:09;17.70;99.90
17174;DHT22;8702;48.130;-1.696;2022-07-06T06:46:37;17.80;99.90
17174;DHT22;8702;48.130;-1.696;2022-07-06T06:49:05;17.80;99.90
17174;DHT22;8702;48.130;-1.696;2022-07-06T06:51:32;17.80;99.90
17174;DHT22;8702;48.130;-1.696;2022-07-06T06:53:59;17.90;99.90
17174;DHT22;8702;48.130;-1.696;2022-07-06T06:56:26;18.10;99.90
17174;DHT22;8702;48.130;-1.696;2022-07-06T06:58:53;17.80;99.90
17174;DHT22;8702;48.130;-1.696;2022-07-06T07:01:20;18.10;99.90
17174;DHT22;8702;48.130;-1.696;2022-07-06T07:03:50;18.20;99.90
17174;DHT22;8702;48.130;-1.696;2022-07-06T07:06:17;18.20;99.90
17174;DHT22;8702;48.130;-1.696;2022-07-06T07:08:44;18.20;99.90
17174;DHT22;8702;48.130;-1.696;2022-07-06T07:11:11;18.10;99.90
17174;DHT22;8702;48.130;-1.696;2022-07-06T07:13:38;18.20;99.90
17174;DHT22;8702;48.130;-1.696;2022-07-06T07:16:05;18.20;99.90
17174;DHT22;8702;48.130;-1.696;2022-07-06T07:18:32;18.30;99.90
17174;DHT22;8702;48.130;-1.696;2022-07-06T07:21:01;18.30;99.90
17174;DHT22;8702;48.130;-1.696;2022-07-06T07:23:28;18.40;99.90
17174;DHT22;8702;48.130;-1.696;2022-07-06T07:25:55;18.50;99.90
17174;DHT22;8702;48.130;-1.696;2022-07-06T07:28:22;18.50;99.90
17174;DHT22;8702;48.130;-1.696;2022-07-06T07:30:49;18.60;99.90
17174;DHT22;8702;48.130;-1.696;2022-07-06T07:33:16;18.70;99.90
17174;DHT22;8702;48.130;-1.696;2022-07-06T07:35:43;18.80;99.90
17174;DHT22;8702;48.130;-1.696;2022-07-06T07:38:12;18.80;99.90
17174;DHT22;8702;48.130;-1.696;2022-07-06T07:40:39;18.90;99.90
17174;DHT22;8702;48.130;-1.696;2022-07-06T07:43:06;18.80;99.90
17174;DHT22;8702;48.130;-1.696;2022-07-06T07:45:33;18.90;99.90
17174;DHT22;8702;48.130;-1.696;2022-07-06T07:48:00;18.80;99.90
17174;DHT22;8702;48.130;-1.696;2022-07-06T07:50:27;18.90;99.90
17174;DHT22;8702;48.130;-1.696;2022-07-06T07:52:55;18.90;99.90
17174;DHT22;8702;48.130;-1.696;2022-07-06T07:55:23;19.00;99.90
17174;DHT22;8702;48.130;-1.696;2022-07-06T07:57:50;19.00;99.90
17174;DHT22;8702;48.130;-1.696;2022-07-06T08:00:17;19.10;99.90
17174;DHT22;8702;48.130;-1.696;2022-07-06T08:02:47;19.20;99.90
17174;DHT22;8702;48.130;-1.696;2022-07-06T08:05:14;19.20;99.90
17174;DHT22;8702;48.130;-1.696;2022-07-06T08:07:41;19.20;99.90
17174;DHT22;8702;48.130;-1.696;2022-07-06T08:10:09;19.30;99.90
17174;DHT22;8702;48.130;-1.696;2022-07-06T08:12:38;19.40;99.90
17174;DHT22;8702;48.130;-1.696;2022-07-06T08:15:06;19.40;99.90
17174;DHT22;8702;48.130;-1.696;2022-07-06T08:17:33;19.40;99.90
17174;DHT22;8702;48.130;-1.696;2022-07-06T08:20:00;19.50;99.90
17174;DHT22;8702;48.130;-1.696;2022-07-06T08:22:27;19.50;99.90
17174;DHT22;8702;48.130;-1.696;2022-07-06T08:24:55;19.60;99.90
17174;DHT22;8702;48.130;-1.696;2022-07-06T08:27:23;19.70;99.90
17174;DHT22;8702;48.130;-1.696;2022-07-06T08:29:52;19.70;99.90
17174;DHT22;8702;48.130;-1.696;2022-07-06T08:32:19;19.70;99.90
17174;DHT22;8702;48.130;-1.696;2022-07-06T08:34:46;19.80;99.90
17174;DHT22;8702;48.130;-1.696;2022-07-06T08:37:14;19.80;99.90
17174;DHT22;8702;48.130;-1.696;2022-07-06T08:39:41;19.90;99.90
17174;DHT22;8702;48.130;-1.696;2022-07-06T08:42:08;19.90;99.90
17174;DHT22;8702;48.130;-1.696;2022-07-06T08:44:36;20.00;99.90
17174;DHT22;8702;48.130;-1.696;2022-07-06T08:47:06;20.00;99.90
17174;DHT22;8702;48.130;-1.696;2022-07-06T08:49:33;20.10;99.90
17174;DHT22;8702;48.130;-1.696;2022-07-06T08:52:03;20.10;99.90
17174;DHT22;8702;48.130;-1.696;2022-07-06T08:54:31;20.10;99.90
17174;DHT22;8702;48.130;-1.696;2022-07-06T08:56:58;20.20;99.90
17174;DHT22;8702;48.130;-1.696;2022-07-06T08:59:25;20.30;99.90
17174;DHT22;8702;48.130;-1.696;2022-07-06T09:01:54;20.30;99.90
17174;DHT22;8702;48.130;-1.696;2022-07-06T09:04:23;20.40;99.90
17174;DHT22;8702;48.130;-1.696;2022-07-06T09:06:51;20.40;99.90
17174;DHT22;8702;48.130;-1.696;2022-07-06T09:09:21;20.50;99.90
17174;DHT22;8702;48.130;-1.696;2022-07-06T09:11:49;20.60;99.90
17174;DHT22;8702;48.130;-1.696;2022-07-06T09:14:17;20.50;99.70
17174;DHT22;8702;48.130;-1.696;2022-07-06T09:16:45;20.50;99.80
17174;DHT22;8702;48.130;-1.696;2022-07-06T09:19:12;20.60;99.60
17174;DHT22;8702;48.130;-1.696;2022-07-06T09:21:42;20.60;99.90
17174;DHT22;8702;48.130;-1.696;2022-07-06T09:24:11;20.60;99.50
17174;DHT22;8702;48.130;-1.696;2022-07-06T09:26:39;20.70;99.70
17174;DHT22;8702;48.130;-1.696;2022-07-06T09:29:07;20.70;99.60
17174;DHT22;8702;48.130;-1.696;2022-07-06T09:31:34;20.70;99.80
17174;DHT22;8702;48.130;-1.696;2022-07-06T09:34:02;20.80;99.70
17174;DHT22;8702;48.130;-1.696;2022-07-06T09:36:38;20.90;98.80
17174;DHT22;8702;48.130;-1.696;2022-07-06T09:39:18;21.00;98.90
17174;DHT22;8702;48.130;-1.696;2022-07-06T09:41:46;21.10;98.20
17174;DHT22;8702;48.130;-1.696;2022-07-06T09:44:13;21.10;98.60
17174;DHT22;8702;48.130;-1.696;2022-07-06T09:46:46;21.10;98.90
17174;DHT22;8702;48.130;-1.696;2022-07-06T09:49:16;21.20;98.90
17174;DHT22;8702;48.130;-1.696;2022-07-06T09:51:45;21.20;97.50
17174;DHT22;8702;48.130;-1.696;2022-07-06T09:54:12;21.20;97.60
17174;DHT22;8702;48.130;-1.696;2022-07-06T09:56:41;21.30;97.60
17174;DHT22;8702;48.130;-1.696;2022-07-06T09:59:09;21.40;96.60
17174;DHT22;8702;48.130;-1.696;2022-07-06T10:01:37;21.40;97.70
17174;DHT22;8702;48.130;-1.696;2022-07-06T10:04:05;21.60;97.70
17174;DHT22;8702;48.130;-1.696;2022-07-06T10:06:33;21.70;96.70
17174;DHT22;8702;48.130;-1.696;2022-07-06T10:09:01;21.60;96.70
17174;DHT22;8702;48.130;-1.696;2022-07-06T10:11:29;21.60;96.60
17174;DHT22;8702;48.130;-1.696;2022-07-06T10:13:59;21.60;96.70
17174;DHT22;8702;48.130;-1.696;2022-07-06T10:16:28;21.70;96.60
17174;DHT22;8702;48.130;-1.696;2022-07-06T10:18:55;21.70;97.10
17174;DHT22;8702;48.130;-1.696;2022-07-06T10:21:23;21.60;96.70
17174;DHT22;8702;48.130;-1.696;2022-07-06T10:23:50;21.60;96.20
17174;DHT22;8702;48.130;-1.696;2022-07-06T10:26:18;21.60;96.40
17174;DHT22;8702;48.130;-1.696;2022-07-06T10:28:45;21.70;96.30
17174;DHT22;8702;48.130;-1.696;2022-07-06T10:31:15;21.80;96.20
17174;DHT22;8702;48.130;-1.696;2022-07-06T10:33:43;21.80;96.10
17174;DHT22;8702;48.130;-1.696;2022-07-06T10:36:11;21.90;96.20
17174;DHT22;8702;48.130;-1.696;2022-07-06T10:38:39;21.90;95.70
17174;DHT22;8702;48.130;-1.696;2022-07-06T10:41:08;22.00;95.80
17174;DHT22;8702;48.130;-1.696;2022-07-06T10:43:36;22.00;96.00
17174;DHT22;8702;48.130;-1.696;2022-07-06T10:46:07;22.20;95.60
17174;DHT22;8702;48.130;-1.696;2022-07-06T10:48:39;22.20;95.70
17174;DHT22;8702;48.130;-1.696;2022-07-06T10:51:06;22.30;95.60
17174;DHT22;8702;48.130;-1.696;2022-07-06T10:53:35;22.40;95.50
17174;DHT22;8702;48.130;-1.696;2022-07-06T10:56:05;22.50;95.30
17174;DHT22;8702;48.130;-1.696;2022-07-06T10:58:49;22.50;95.10
17174;DHT22;8702;48.130;-1.696;2022-07-06T11:01:17;22.60;95.10
17174;DHT22;8702;48.130;-1.696;2022-07-06T11:03:47;22.70;94.70
17174;DHT22;8702;48.130;-1.696;2022-07-06T11:06:16;22.70;93.90
17174;DHT22;8702;48.130;-1.696;2022-07-06T11:09:01;22.70;94.60
17174;DHT22;8702;48.130;-1.696;2022-07-06T11:11:38;22.80;94.50
17174;DHT22;8702;48.130;-1.696;2022-07-06T11:14:08;22.80;94.00
17174;DHT22;8702;48.130;-1.696;2022-07-06T11:16:37;22.70;94.70
17174;DHT22;8702;48.130;-1.696;2022-07-06T11:19:09;22.70;94.30
17174;DHT22;8702;48.130;-1.696;2022-07-06T11:21:39;22.70;93.70
17174;DHT22;8702;48.130;-1.696;2022-07-06T11:24:09;22.60;93.20
17174;DHT22;8702;48.130;-1.696;2022-07-06T11:26:36;22.70;94.00
17174;DHT22;8702;48.130;-1.696;2022-07-06T11:29:04;22.80;93.70
17174;DHT22;8702;48.130;-1.696;2022-07-06T11:31:36;22.90;94.10
17174;DHT22;8702;48.130;-1.696;2022-07-06T11:34:04;22.90;93.40
17174;DHT22;8702;48.130;-1.696;2022-07-06T11:36:33;22.90;93.70
17174;DHT22;8702;48.130;-1.696;2022-07-06T11:39:00;22.90;93.60
17174;DHT22;8702;48.130;-1.696;2022-07-06T11:41:27;23.00;93.00
17174;DHT22;8702;48.130;-1.696;2022-07-06T11:43:54;22.90;92.70
17174;DHT22;8702;48.130;-1.696;2022-07-06T11:46:26;22.80;92.60
17174;DHT22;8702;48.130;-1.696;2022-07-06T11:48:55;22.90;93.00
17174;DHT22;8702;48.130;-1.696;2022-07-06T11:51:23;22.90;92.90
17174;DHT22;8702;48.130;-1.696;2022-07-06T11:53:53;22.90;92.80
17174;DHT22;8702;48.130;-1.696;2022-07-06T11:56:21;23.10;93.30
17174;DHT22;8702;48.130;-1.696;2022-07-06T11:58:52;23.20;93.40
17174;DHT22;8702;48.130;-1.696;2022-07-06T12:01:21;23.30;93.30
17174;DHT22;8702;48.130;-1.696;2022-07-06T12:03:48;23.30;93.20
17174;DHT22;8702;48.130;-1.696;2022-07-06T12:06:17;23.30;93.00
17174;DHT22;8702;48.130;-1.696;2022-07-06T12:08:46;23.40;93.00
17174;DHT22;8702;48.130;-1.696;2022-07-06T12:11:25;23.40;92.80
17174;DHT22;8702;48.130;-1.696;2022-07-06T12:13:54;23.40;92.50
17174;DHT22;8702;48.130;-1.696;2022-07-06T12:16:27;23.40;92.60
17174;DHT22;8702;48.130;-1.696;2022-07-06T12:18:55;23.50;92.70
17174;DHT22;8702;48.130;-1.696;2022-07-06T12:21:22;23.50;92.50
17174;DHT22;8702;48.130;-1.696;2022-07-06T12:23:50;23.60;92.20
17174;DHT22;8702;48.130;-1.696;2022-07-06T12:26:20;23.60;92.30
17174;DHT22;8702;48.130;-1.696;2022-07-06T12:29:01;23.50;92.70
17174;DHT22;8702;48.130;-1.696;2022-07-06T12:31:33;23.50;92.70
17174;DHT22;8702;48.130;-1.696;2022-07-06T12:34:00;23.40;92.30
17174;DHT22;8702;48.130;-1.696;2022-07-06T12:36:27;23.40;92.60
17174;DHT22;8702;48.130;-1.696;2022-07-06T12:38:54;23.50;92.80
17174;DHT22;8702;48.130;-1.696;2022-07-06T12:41:28;23.60;91.90
17174;DHT22;8702;48.130;-1.696;2022-07-06T12:44:06;23.60;91.90
17174;DHT22;8702;48.130;-1.696;2022-07-06T12:46:35;23.80;92.20
17174;DHT22;8702;48.130;-1.696;2022-07-06T12:49:10;23.90;92.20
17174;DHT22;8702;48.130;-1.696;2022-07-06T12:51:58;24.10;92.10
17174;DHT22;8702;48.130;-1.696;2022-07-06T12:54:27;24.10;91.40
17174;DHT22;8702;48.130;-1.696;2022-07-06T12:57:06;23.90;91.70
17174;DHT22;8702;48.130;-1.696;2022-07-06T12:59:36;24.00;91.90
17174;DHT22;8702;48.130;-1.696;2022-07-06T13:02:05;24.00;91.90
17174;DHT22;8702;48.130;-1.696;2022-07-06T13:04:34;24.10;92.10
17174;DHT22;8702;48.130;-1.696;2022-07-06T13:07:02;24.00;91.80
17174;DHT22;8702;48.130;-1.696;2022-07-06T13:09:30;24.00;92.00
17174;DHT22;8702;48.130;-1.696;2022-07-06T13:11:57;23.90;92.00
17174;DHT22;8702;48.130;-1.696;2022-07-06T13:14:24;23.90;92.10
17174;DHT22;8702;48.130;-1.696;2022-07-06T13:16:52;24.00;92.10
17174;DHT22;8702;48.130;-1.696;2022-07-06T13:19:20;24.10;92.00
17174;DHT22;8702;48.130;-1.696;2022-07-06T13:21:47;24.20;91.50
17174;DHT22;8702;48.130;-1.696;2022-07-06T13:24:14;24.10;91.60
17174;DHT22;8702;48.130;-1.696;2022-07-06T13:26:41;24.10;91.90
17174;DHT22;8702;48.130;-1.696;2022-07-06T13:29:08;24.20;92.00
17174;DHT22;8702;48.130;-1.696;2022-07-06T13:31:37;24.30;92.10
17174;DHT22;8702;48.130;-1.696;2022-07-06T13:34:07;24.50;91.60
17174;DHT22;8702;48.130;-1.696;2022-07-06T13:36:34;24.40;91.40
17174;DHT22;8702;48.130;-1.696;2022-07-06T13:39:02;24.30;91.40
17174;DHT22;8702;48.130;-1.696;2022-07-06T13:41:29;24.40;91.80
17174;DHT22;8702;48.130;-1.696;2022-07-06T13:43:56;24.50;91.40
17174;DHT22;8702;48.130;-1.696;2022-07-06T13:46:23;24.40;90.70
17174;DHT22;8702;48.130;-1.696;2022-07-06T13:48:50;24.40;91.10
17174;DHT22;8702;48.130;-1.696;2022-07-06T13:51:19;24.50;91.40
17174;DHT22;8702;48.130;-1.696;2022-07-06T13:53:46;24.70;91.20
17174;DHT22;8702;48.130;-1.696;2022-07-06T13:56:13;24.70;91.50
17174;DHT22;8702;48.130;-1.696;2022-07-06T13:58:41;24.60;91.30
17174;DHT22;8702;48.130;-1.696;2022-07-06T14:01:08;24.60;91.20
17174;DHT22;8702;48.130;-1.696;2022-07-06T14:03:35;24.70;91.50
17174;DHT22;8702;48.130;-1.696;2022-07-06T14:06:04;24.80;91.10
17174;DHT22;8702;48.130;-1.696;2022-07-06T14:08:34;24.80;90.80
17174;DHT22;8702;48.130;-1.696;2022-07-06T14:11:01;24.70;91.20
17174;DHT22;8702;48.130;-1.696;2022-07-06T14:13:29;24.90;91.10
17174;DHT22;8702;48.130;-1.696;2022-07-06T14:15:56;24.90;90.80
17174;DHT22;8702;48.130;-1.696;2022-07-06T14:18:23;25.00;90.50
17174;DHT22;8702;48.130;-1.696;2022-07-06T14:20:51;24.90;90.80
17174;DHT22;8702;48.130;-1.696;2022-07-06T14:23:19;25.10;91.20
17174;DHT22;8702;48.130;-1.696;2022-07-06T14:25:48;25.40;91.20
17174;DHT22;8702;48.130;-1.696;2022-07-06T14:28:15;25.50;90.50
17174;DHT22;8702;48.130;-1.696;2022-07-06T14:30:44;25.40;90.40
17174;DHT22;8702;48.130;-1.696;2022-07-06T14:33:12;25.50;90.00
17174;DHT22;8702;48.130;-1.696;2022-07-06T14:35:41;25.50;90.40
17174;DHT22;8702;48.130;-1.696;2022-07-06T14:38:09;25.70;90.50
17174;DHT22;8702;48.130;-1.696;2022-07-06T14:40:36;25.60;90.00
17174;DHT22;8702;48.130;-1.696;2022-07-06T14:43:04;25.70;90.70
17174;DHT22;8702;48.130;-1.696;2022-07-06T14:45:32;26.00;90.00
17174;DHT22;8702;48.130;-1.696;2022-07-06T14:47:59;26.20;89.80
17174;DHT22;8702;48.130;-1.696;2022-07-06T14:50:26;26.40;90.00
17174;DHT22;8702;48.130;-1.696;2022-07-06T14:52:54;26.50;89.50
17174;DHT22;8702;48.130;-1.696;2022-07-06T14:55:21;26.60;88.80
17174;DHT22;8702;48.130;-1.696;2022-07-06T14:57:48;26.70;89.10
17174;DHT22;8702;48.130;-1.696;2022-07-06T15:00:17;27.00;89.30
17174;DHT22;8702;48.130;-1.696;2022-07-06T15:02:44;27.20;88.90
17174;DHT22;8702;48.130;-1.696;2022-07-06T15:05:11;27.30;87.90
17174;DHT22;8702;48.130;-1.696;2022-07-06T15:07:39;27.40;87.50
17174;DHT22;8702;48.130;-1.696;2022-07-06T15:10:07;27.40;86.70
17174;DHT22;8702;48.130;-1.696;2022-07-06T15:12:35;27.50;87.40
17174;DHT22;8702;48.130;-1.696;2022-07-06T15:15:02;27.40;87.30
17174;DHT22;8702;48.130;-1.696;2022-07-06T15:17:31;27.40;87.80
17174;DHT22;8702;48.130;-1.696;2022-07-06T15:19:58;27.40;87.50
17174;DHT22;8702;48.130;-1.696;2022-07-06T15:22:26;27.20;88.20
17174;DHT22;8702;48.130;-1.696;2022-07-06T15:24:53;27.30;88.60
17174;DHT22;8702;48.130;-1.696;2022-07-06T15:27:20;27.30;88.00
17174;DHT22;8702;48.130;-1.696;2022-07-06T15:29:47;27.40;87.60
17174;DHT22;8702;48.130;-1.696;2022-07-06T15:32:14;27.30;87.60
17174;DHT22;8702;48.130;-1.696;2022-07-06T15:34:42;27.30;87.90